Back to Top

Language: 

My Weather Underground Personal Weather Station Historical Data with Graphs...

Delerius Weather Station Historical Data
Daily Summary for February 2, 2018 Units:  Both    English   Metric
« Previous Day
Next Day »
Daily Weekly Monthly Yearly Custom
  High: Low: Average:
Temperature: 45.9 °F /  7.7 °C 31.1 °F /  -0.5 °C 39.5 °F /  4.2 °C
Dew Point: 36.1 °F /  2.3 °C 28.7 °F /  -1.8 °C 33.1 °F /  0.6 °C
Humidity: 93 % 65 % 78 %
Wind Speed: 15.0 mph /  24.1 km/h - 5.9 mph /  9.5 km/h
Wind Gust: 26.0 mph /  41.8 km/h - -
Wind:- - NW
Pressure: 29.89 in /  1012.1 hPa 29.74 in /  1007 hPa -
Precipitation: 0.00 in /  0 mm    
Historical Graphs
 
 
Tabular Data for February 2, 2018
Time Temperature Dew Point Pressure Wind Wind Speed Wind Gust Humidity Rainfall Rate (Hourly) solar Conditions
00:00 39.0 °F /  3.9 °C 32.7 °F /  0.4 °C 29.75 in /  1007.3 hPa WNW 12.0 mph /  19.3 km/h 18.0 mph /  29 km/h 78 % 0.00 in /  0 mm 0 W/m2
00:05 39.0 °F /  3.9 °C 32.7 °F /  0.4 °C 29.75 in /  1007.3 hPa WNW 11.0 mph /  17.7 km/h 20.0 mph /  32.2 km/h 78 % 0.00 in /  0 mm 0 W/m2
00:10 38.8 °F /  3.8 °C 32.6 °F /  0.3 °C 29.75 in /  1007.3 hPa WNW 11.0 mph /  17.7 km/h 19.0 mph /  30.6 km/h 78 % 0.00 in /  0 mm 0 W/m2
00:15 38.8 °F /  3.8 °C 32.9 °F /  0.5 °C 29.75 in /  1007.3 hPa WNW 11.0 mph /  17.7 km/h 19.0 mph /  30.6 km/h 79 % 0.00 in /  0 mm 0 W/m2
00:20 38.8 °F /  3.8 °C 32.6 °F /  0.3 °C 29.75 in /  1007.3 hPa WNW 11.0 mph /  17.7 km/h 20.0 mph /  32.2 km/h 78 % 0.00 in /  0 mm 0 W/m2
00:25 38.8 °F /  3.8 °C 32.9 °F /  0.5 °C 29.75 in /  1007.3 hPa WNW 11.0 mph /  17.7 km/h 19.0 mph /  30.6 km/h 79 % 0.00 in /  0 mm 0 W/m2
00:30 39.0 °F /  3.9 °C 32.7 °F /  0.4 °C 29.75 in /  1007.3 hPa WNW 11.0 mph /  17.7 km/h 15.0 mph /  24.1 km/h 78 % 0.00 in /  0 mm 0 W/m2
00:35 39.2 °F /  4 °C 32.9 °F /  0.5 °C 29.75 in /  1007.3 hPa WNW 13.0 mph /  20.9 km/h 23.0 mph /  37 km/h 78 % 0.00 in /  0 mm 0 W/m2
00:40 39.4 °F /  4.1 °C 33.1 °F /  0.6 °C 29.75 in /  1007.3 hPa WNW 10.0 mph /  16.1 km/h 16.0 mph /  25.7 km/h 78 % 0.00 in /  0 mm 0 W/m2
00:45 39.4 °F /  4.1 °C 33.1 °F /  0.6 °C 29.75 in /  1007.3 hPa WNW 13.0 mph /  20.9 km/h 22.0 mph /  35.4 km/h 78 % 0.00 in /  0 mm 0 W/m2
00:50 39.6 °F /  4.2 °C 32.9 °F /  0.5 °C 29.75 in /  1007.3 hPa WNW 11.0 mph /  17.7 km/h 20.0 mph /  32.2 km/h 77 % 0.00 in /  0 mm 0 W/m2
00:55 39.7 °F /  4.3 °C 33.1 °F /  0.6 °C 29.75 in /  1007.3 hPa NW 13.0 mph /  20.9 km/h 26.0 mph /  41.8 km/h 77 % 0.00 in /  0 mm 0 W/m2
01:00 39.7 °F /  4.3 °C 33.1 °F /  0.6 °C 29.75 in /  1007.3 hPa WNW 15.0 mph /  24.1 km/h 22.0 mph /  35.4 km/h 77 % 0.00 in /  0 mm 0 W/m2
01:05 39.9 °F /  4.4 °C 33.3 °F /  0.7 °C 29.74 in /  1007 hPa WNW 13.0 mph /  20.9 km/h 20.0 mph /  32.2 km/h 77 % 0.00 in /  0 mm 0 W/m2
01:10 39.9 °F /  4.4 °C 33.0 °F /  0.6 °C 29.74 in /  1007 hPa WNW 14.0 mph /  22.5 km/h 26.0 mph /  41.8 km/h 76 % 0.00 in /  0 mm 0 W/m2
01:15 40.1 °F /  4.5 °C 33.1 °F /  0.6 °C 29.74 in /  1007 hPa WNW 12.0 mph /  19.3 km/h 24.0 mph /  38.6 km/h 76 % 0.00 in /  0 mm 0 W/m2
01:20 40.1 °F /  4.5 °C 33.1 °F /  0.6 °C 29.74 in /  1007 hPa WNW 11.0 mph /  17.7 km/h 22.0 mph /  35.4 km/h 76 % 0.00 in /  0 mm 0 W/m2
01:25 39.9 °F /  4.4 °C 33.0 °F /  0.6 °C 29.75 in /  1007.3 hPa WNW 11.0 mph /  17.7 km/h 24.0 mph /  38.6 km/h 76 % 0.00 in /  0 mm 0 W/m2
01:30 39.9 °F /  4.4 °C 33.0 °F /  0.6 °C 29.75 in /  1007.3 hPa WNW 8.0 mph /  12.9 km/h 18.0 mph /  29 km/h 76 % 0.00 in /  0 mm 0 W/m2
01:35 39.9 °F /  4.4 °C 33.0 °F /  0.6 °C 29.76 in /  1007.7 hPa NW 9.0 mph /  14.5 km/h 20.0 mph /  32.2 km/h 76 % 0.00 in /  0 mm 0 W/m2
01:40 40.1 °F /  4.5 °C 33.1 °F /  0.6 °C 29.75 in /  1007.3 hPa WNW 12.0 mph /  19.3 km/h 23.0 mph /  37 km/h 76 % 0.00 in /  0 mm 0 W/m2
01:45 40.3 °F /  4.6 °C 33.3 °F /  0.7 °C 29.76 in /  1007.7 hPa WNW 13.0 mph /  20.9 km/h 22.0 mph /  35.4 km/h 76 % 0.00 in /  0 mm 0 W/m2
01:50 40.3 °F /  4.6 °C 33.3 °F /  0.7 °C 29.76 in /  1007.7 hPa WNW 12.0 mph /  19.3 km/h 20.0 mph /  32.2 km/h 76 % 0.00 in /  0 mm 0 W/m2
01:55 40.3 °F /  4.6 °C 33.3 °F /  0.7 °C 29.76 in /  1007.7 hPa WNW 14.0 mph /  22.5 km/h 23.0 mph /  37 km/h 76 % 0.00 in /  0 mm 0 W/m2
02:00 40.5 °F /  4.7 °C 33.2 °F /  0.7 °C 29.77 in /  1008 hPa NW 15.0 mph /  24.1 km/h 26.0 mph /  41.8 km/h 75 % 0.00 in /  0 mm 0 W/m2
02:05 40.5 °F /  4.7 °C 33.2 °F /  0.7 °C 29.77 in /  1008 hPa NW 10.0 mph /  16.1 km/h 15.0 mph /  24.1 km/h 75 % 0.00 in /  0 mm 0 W/m2
02:10 40.6 °F /  4.8 °C 33.3 °F /  0.7 °C 29.77 in /  1008 hPa NW 8.0 mph /  12.9 km/h 13.0 mph /  20.9 km/h 75 % 0.00 in /  0 mm 0 W/m2
02:15 40.6 °F /  4.8 °C 33.3 °F /  0.7 °C 29.77 in /  1008 hPa NW 11.0 mph /  17.7 km/h 25.0 mph /  40.2 km/h 75 % 0.00 in /  0 mm 0 W/m2
02:20 40.6 °F /  4.8 °C 33.3 °F /  0.7 °C 29.77 in /  1008 hPa NW 11.0 mph /  17.7 km/h 20.0 mph /  32.2 km/h 75 % 0.00 in /  0 mm 0 W/m2
02:25 40.8 °F /  4.9 °C 33.5 °F /  0.8 °C 29.77 in /  1008 hPa NW 11.0 mph /  17.7 km/h 18.0 mph /  29 km/h 75 % 0.00 in /  0 mm 0 W/m2
02:30 40.8 °F /  4.9 °C 33.5 °F /  0.8 °C 29.78 in /  1008.4 hPa NW 10.0 mph /  16.1 km/h 16.0 mph /  25.7 km/h 75 % 0.00 in /  0 mm 0 W/m2
02:35 40.8 °F /  4.9 °C 33.5 °F /  0.8 °C 29.78 in /  1008.4 hPa NW 10.0 mph /  16.1 km/h 19.0 mph /  30.6 km/h 75 % 0.00 in /  0 mm 0 W/m2
02:40 40.8 °F /  4.9 °C 33.5 °F /  0.8 °C 29.78 in /  1008.4 hPa NW 9.0 mph /  14.5 km/h 20.0 mph /  32.2 km/h 75 % 0.00 in /  0 mm 0 W/m2
02:45 40.8 °F /  4.9 °C 33.5 °F /  0.8 °C 29.78 in /  1008.4 hPa NW 9.0 mph /  14.5 km/h 15.0 mph /  24.1 km/h 75 % 0.00 in /  0 mm 0 W/m2
02:51 40.8 °F /  4.9 °C 33.5 °F /  0.8 °C 29.78 in /  1008.4 hPa NW 10.0 mph /  16.1 km/h 19.0 mph /  30.6 km/h 75 % 0.00 in /  0 mm 0 W/m2
02:56 40.8 °F /  4.9 °C 33.5 °F /  0.8 °C 29.78 in /  1008.4 hPa NW 9.0 mph /  14.5 km/h 18.0 mph /  29 km/h 75 % 0.00 in /  0 mm 0 W/m2
03:01 40.8 °F /  4.9 °C 33.5 °F /  0.8 °C 29.78 in /  1008.4 hPa NW 10.0 mph /  16.1 km/h 19.0 mph /  30.6 km/h 75 % 0.00 in /  0 mm 0 W/m2
03:06 40.8 °F /  4.9 °C 33.5 °F /  0.8 °C 29.79 in /  1008.7 hPa NW 11.0 mph /  17.7 km/h 20.0 mph /  32.2 km/h 75 % 0.00 in /  0 mm 0 W/m2
03:11 40.8 °F /  4.9 °C 33.5 °F /  0.8 °C 29.79 in /  1008.7 hPa NW 9.0 mph /  14.5 km/h 15.0 mph /  24.1 km/h 75 % 0.00 in /  0 mm 0 W/m2
03:16 40.8 °F /  4.9 °C 33.5 °F /  0.8 °C 29.79 in /  1008.7 hPa NW 13.0 mph /  20.9 km/h 23.0 mph /  37 km/h 75 % 0.00 in /  0 mm 0 W/m2
03:21 40.6 °F /  4.8 °C 33.3 °F /  0.7 °C 29.79 in /  1008.7 hPa NW 13.0 mph /  20.9 km/h 20.0 mph /  32.2 km/h 75 % 0.00 in /  0 mm 0 W/m2
03:26 40.6 °F /  4.8 °C 33.3 °F /  0.7 °C 29.79 in /  1008.7 hPa NW 9.0 mph /  14.5 km/h 18.0 mph /  29 km/h 75 % 0.00 in /  0 mm 0 W/m2
03:31 40.6 °F /  4.8 °C 33.3 °F /  0.7 °C 29.79 in /  1008.7 hPa WNW 12.0 mph /  19.3 km/h 21.0 mph /  33.8 km/h 75 % 0.00 in /  0 mm 0 W/m2
03:36 40.6 °F /  4.8 °C 33.3 °F /  0.7 °C 29.79 in /  1008.7 hPa NW 11.0 mph /  17.7 km/h 19.0 mph /  30.6 km/h 75 % 0.00 in /  0 mm 0 W/m2
03:41 40.6 °F /  4.8 °C 33.3 °F /  0.7 °C 29.79 in /  1008.7 hPa NW 9.0 mph /  14.5 km/h 18.0 mph /  29 km/h 75 % 0.00 in /  0 mm 0 W/m2
03:46 40.6 °F /  4.8 °C 33.3 °F /  0.7 °C 29.79 in /  1008.7 hPa NW 8.0 mph /  12.9 km/h 14.0 mph /  22.5 km/h 75 % 0.00 in /  0 mm 0 W/m2
03:51 40.6 °F /  4.8 °C 33.3 °F /  0.7 °C 29.79 in /  1008.7 hPa NW 7.0 mph /  11.3 km/h 16.0 mph /  25.7 km/h 75 % 0.00 in /  0 mm 0 W/m2
03:56 40.6 °F /  4.8 °C 33.7 °F /  0.9 °C 29.79 in /  1008.7 hPa NW 8.0 mph /  12.9 km/h 16.0 mph /  25.7 km/h 76 % 0.00 in /  0 mm 0 W/m2
04:01 40.6 °F /  4.8 °C 33.7 °F /  0.9 °C 29.79 in /  1008.7 hPa NW 10.0 mph /  16.1 km/h 19.0 mph /  30.6 km/h 76 % 0.00 in /  0 mm 0 W/m2
04:06 40.6 °F /  4.8 °C 33.7 °F /  0.9 °C 29.79 in /  1008.7 hPa WNW 11.0 mph /  17.7 km/h 21.0 mph /  33.8 km/h 76 % 0.00 in /  0 mm 0 W/m2
04:11 40.6 °F /  4.8 °C 34.0 °F /  1.1 °C 29.80 in /  1009 hPa WNW 10.0 mph /  16.1 km/h 19.0 mph /  30.6 km/h 77 % 0.00 in /  0 mm 0 W/m2
04:16 40.6 °F /  4.8 °C 34.0 °F /  1.1 °C 29.80 in /  1009 hPa WNW 11.0 mph /  17.7 km/h 18.0 mph /  29 km/h 77 % 0.00 in /  0 mm 0 W/m2
04:21 40.6 °F /  4.8 °C 34.0 °F /  1.1 °C 29.80 in /  1009 hPa NW 8.0 mph /  12.9 km/h 12.0 mph /  19.3 km/h 77 % 0.00 in /  0 mm 0 W/m2
04:26 40.5 °F /  4.7 °C 34.1 °F /  1.2 °C 29.80 in /  1009 hPa NW 10.0 mph /  16.1 km/h 15.0 mph /  24.1 km/h 78 % 0.00 in /  0 mm 0 W/m2
04:31 40.5 °F /  4.7 °C 34.1 °F /  1.2 °C 29.80 in /  1009 hPa WNW 9.0 mph /  14.5 km/h 15.0 mph /  24.1 km/h 78 % 0.00 in /  0 mm 0 W/m2
04:36 40.5 °F /  4.7 °C 34.1 °F /  1.2 °C 29.80 in /  1009 hPa WNW 9.0 mph /  14.5 km/h 16.0 mph /  25.7 km/h 78 % 0.00 in /  0 mm 0 W/m2
04:41 40.5 °F /  4.7 °C 34.1 °F /  1.2 °C 29.80 in /  1009 hPa WNW 10.0 mph /  16.1 km/h 19.0 mph /  30.6 km/h 78 % 0.00 in /  0 mm 0 W/m2
04:46 40.5 °F /  4.7 °C 34.1 °F /  1.2 °C 29.80 in /  1009 hPa WNW 9.0 mph /  14.5 km/h 15.0 mph /  24.1 km/h 78 % 0.00 in /  0 mm 0 W/m2
04:51 40.5 °F /  4.7 °C 34.1 °F /  1.2 °C 29.81 in /  1009.4 hPa NW 7.0 mph /  11.3 km/h 11.0 mph /  17.7 km/h 78 % 0.00 in /  0 mm 0 W/m2
04:56 40.5 °F /  4.7 °C 34.1 °F /  1.2 °C 29.81 in /  1009.4 hPa WNW 8.0 mph /  12.9 km/h 13.0 mph /  20.9 km/h 78 % 0.00 in /  0 mm 0 W/m2
05:01 40.5 °F /  4.7 °C 34.1 °F /  1.2 °C 29.81 in /  1009.4 hPa WNW 10.0 mph /  16.1 km/h 21.0 mph /  33.8 km/h 78 % 0.00 in /  0 mm 0 W/m2
05:06 40.6 °F /  4.8 °C 34.3 °F /  1.3 °C 29.81 in /  1009.4 hPa NW 7.0 mph /  11.3 km/h 13.0 mph /  20.9 km/h 78 % 0.00 in /  0 mm 0 W/m2
05:11 40.6 °F /  4.8 °C 34.3 °F /  1.3 °C 29.81 in /  1009.4 hPa WNW 7.0 mph /  11.3 km/h 15.0 mph /  24.1 km/h 78 % 0.00 in /  0 mm 0 W/m2
05:16 40.6 °F /  4.8 °C 34.3 °F /  1.3 °C 29.81 in /  1009.4 hPa WNW 8.0 mph /  12.9 km/h 13.0 mph /  20.9 km/h 78 % 0.00 in /  0 mm 0 W/m2
05:21 40.5 °F /  4.7 °C 34.1 °F /  1.2 °C 29.81 in /  1009.4 hPa NW 9.0 mph /  14.5 km/h 18.0 mph /  29 km/h 78 % 0.00 in /  0 mm 0 W/m2
05:26 40.3 °F /  4.6 °C 34.0 °F /  1.1 °C 29.81 in /  1009.4 hPa WNW 8.0 mph /  12.9 km/h 12.0 mph /  19.3 km/h 78 % 0.00 in /  0 mm 0 W/m2
05:31 40.1 °F /  4.5 °C 33.8 °F /  1 °C 29.81 in /  1009.4 hPa WNW 8.0 mph /  12.9 km/h 12.0 mph /  19.3 km/h 78 % 0.00 in /  0 mm 0 W/m2
05:36 39.9 °F /  4.4 °C 33.6 °F /  0.9 °C 29.81 in /  1009.4 hPa WNW 11.0 mph /  17.7 km/h 19.0 mph /  30.6 km/h 78 % 0.00 in /  0 mm 0 W/m2
05:41 39.9 °F /  4.4 °C 33.6 °F /  0.9 °C 29.81 in /  1009.4 hPa WNW 10.0 mph /  16.1 km/h 15.0 mph /  24.1 km/h 78 % 0.00 in /  0 mm 0 W/m2
05:47 40.1 °F /  4.5 °C 33.8 °F /  1 °C 29.81 in /  1009.4 hPa WNW 11.0 mph /  17.7 km/h 18.0 mph /  29 km/h 78 % 0.00 in /  0 mm 0 W/m2
05:52 40.1 °F /  4.5 °C 33.8 °F /  1 °C 29.81 in /  1009.4 hPa NW 8.0 mph /  12.9 km/h 16.0 mph /  25.7 km/h 78 % 0.00 in /  0 mm 0 W/m2
05:57 40.1 °F /  4.5 °C 33.8 °F /  1 °C 29.82 in /  1009.7 hPa WNW 12.0 mph /  19.3 km/h 21.0 mph /  33.8 km/h 78 % 0.00 in /  0 mm 0 W/m2
06:02 40.1 °F /  4.5 °C 33.8 °F /  1 °C 29.82 in /  1009.7 hPa WNW 10.0 mph /  16.1 km/h 16.0 mph /  25.7 km/h 78 % 0.00 in /  0 mm 0 W/m2
06:07 40.1 °F /  4.5 °C 33.8 °F /  1 °C 29.82 in /  1009.7 hPa WNW 8.0 mph /  12.9 km/h 13.0 mph /  20.9 km/h 78 % 0.00 in /  0 mm 0 W/m2
06:12 40.1 °F /  4.5 °C 33.8 °F /  1 °C 29.82 in /  1009.7 hPa WNW 9.0 mph /  14.5 km/h 15.0 mph /  24.1 km/h 78 % 0.00 in /  0 mm 0 W/m2
06:17 39.9 °F /  4.4 °C 33.6 °F /  0.9 °C 29.82 in /  1009.7 hPa WNW 9.0 mph /  14.5 km/h 18.0 mph /  29 km/h 78 % 0.00 in /  0 mm 0 W/m2
06:22 39.9 °F /  4.4 °C 33.6 °F /  0.9 °C 29.82 in /  1009.7 hPa WNW 9.0 mph /  14.5 km/h 14.0 mph /  22.5 km/h 78 % 0.00 in /  0 mm 0 W/m2
06:27 39.9 °F /  4.4 °C 33.6 °F /  0.9 °C 29.82 in /  1009.7 hPa WNW 8.0 mph /  12.9 km/h 15.0 mph /  24.1 km/h 78 % 0.00 in /  0 mm 0 W/m2
06:32 39.9 °F /  4.4 °C 33.6 °F /  0.9 °C 29.83 in /  1010 hPa WNW 9.0 mph /  14.5 km/h 18.0 mph /  29 km/h 78 % 0.00 in /  0 mm 0 W/m2
06:37 40.1 °F /  4.5 °C 33.8 °F /  1 °C 29.82 in /  1009.7 hPa WNW 9.0 mph /  14.5 km/h 14.0 mph /  22.5 km/h 78 % 0.00 in /  0 mm 0 W/m2
06:42 40.1 °F /  4.5 °C 33.8 °F /  1 °C 29.83 in /  1010 hPa WNW 8.0 mph /  12.9 km/h 14.0 mph /  22.5 km/h 78 % 0.00 in /  0 mm 0 W/m2
06:47 40.1 °F /  4.5 °C 33.8 °F /  1 °C 29.83 in /  1010 hPa WNW 7.0 mph /  11.3 km/h 13.0 mph /  20.9 km/h 78 % 0.00 in /  0 mm 0 W/m2
06:52 40.3 °F /  4.6 °C 33.6 °F /  0.9 °C 29.83 in /  1010 hPa WNW 10.0 mph /  16.1 km/h 15.0 mph /  24.1 km/h 77 % 0.00 in /  0 mm 0 W/m2
06:57 40.5 °F /  4.7 °C 33.8 °F /  1 °C 29.83 in /  1010 hPa NW 11.0 mph /  17.7 km/h 19.0 mph /  30.6 km/h 77 % 0.00 in /  0 mm 0 W/m2
07:02 40.5 °F /  4.7 °C 33.8 °F /  1 °C 29.84 in /  1010.4 hPa WNW 8.0 mph /  12.9 km/h 13.0 mph /  20.9 km/h 77 % 0.00 in /  0 mm 0 W/m2
07:07 40.5 °F /  4.7 °C 33.8 °F /  1 °C 29.84 in /  1010.4 hPa NW 12.0 mph /  19.3 km/h 20.0 mph /  32.2 km/h 77 % 0.00 in /  0 mm 0 W/m2
07:12 40.6 °F /  4.8 °C 34.0 °F /  1.1 °C 29.84 in /  1010.4 hPa NW 10.0 mph /  16.1 km/h 24.0 mph /  38.6 km/h 77 % 0.00 in /  0 mm 0 W/m2
07:17 40.6 °F /  4.8 °C 33.7 °F /  0.9 °C 29.84 in /  1010.4 hPa NW 10.0 mph /  16.1 km/h 15.0 mph /  24.1 km/h 76 % 0.00 in /  0 mm 0 W/m2
07:22 40.6 °F /  4.8 °C 34.0 °F /  1.1 °C 29.84 in /  1010.4 hPa NW 9.0 mph /  14.5 km/h 18.0 mph /  29 km/h 77 % 0.00 in /  0 mm 0 W/m2
07:27 40.5 °F /  4.7 °C 33.8 °F /  1 °C 29.85 in /  1010.7 hPa WNW 11.0 mph /  17.7 km/h 15.0 mph /  24.1 km/h 77 % 0.00 in /  0 mm 0 W/m2
07:32 40.5 °F /  4.7 °C 33.8 °F /  1 °C 29.84 in /  1010.4 hPa NW 7.0 mph /  11.3 km/h 13.0 mph /  20.9 km/h 77 % 0.00 in /  0 mm 0 W/m2
07:37 40.5 °F /  4.7 °C 33.8 °F /  1 °C 29.85 in /  1010.7 hPa WNW 9.0 mph /  14.5 km/h 15.0 mph /  24.1 km/h 77 % 0.00 in /  0 mm 0 W/m2
07:42 40.5 °F /  4.7 °C 33.8 °F /  1 °C 29.85 in /  1010.7 hPa NW 9.0 mph /  14.5 km/h 16.0 mph /  25.7 km/h 77 % 0.00 in /  0 mm 0 W/m2
07:47 40.5 °F /  4.7 °C 33.8 °F /  1 °C 29.85 in /  1010.7 hPa NW 7.0 mph /  11.3 km/h 14.0 mph /  22.5 km/h 77 % 0.00 in /  0 mm 0 W/m2
07:52 40.5 °F /  4.7 °C 33.8 °F /  1 °C 29.85 in /  1010.7 hPa WNW 10.0 mph /  16.1 km/h 16.0 mph /  25.7 km/h 77 % 0.00 in /  0 mm 0 W/m2
07:57 40.5 °F /  4.7 °C 33.8 °F /  1 °C 29.86 in /  1011.1 hPa NW 9.0 mph /  14.5 km/h 14.0 mph /  22.5 km/h 77 % 0.00 in /  0 mm 5 W/m2
08:02 40.5 °F /  4.7 °C 33.8 °F /  1 °C 29.85 in /  1010.7 hPa WNW 8.0 mph /  12.9 km/h 12.0 mph /  19.3 km/h 77 % 0.00 in /  0 mm 5 W/m2
08:07 40.3 °F /  4.6 °C 34.0 °F /  1.1 °C 29.86 in /  1011.1 hPa WNW 10.0 mph /  16.1 km/h 18.0 mph /  29 km/h 78 % 0.00 in /  0 mm 7 W/m2
08:12 40.3 °F /  4.6 °C 34.0 °F /  1.1 °C 29.86 in /  1011.1 hPa NW 7.0 mph /  11.3 km/h 16.0 mph /  25.7 km/h 78 % 0.00 in /  0 mm 11 W/m2
08:17 40.3 °F /  4.6 °C 34.0 °F /  1.1 °C 29.86 in /  1011.1 hPa NW 6.0 mph /  9.7 km/h 12.0 mph /  19.3 km/h 78 % 0.00 in /  0 mm 16 W/m2
08:22 40.3 °F /  4.6 °C 34.0 °F /  1.1 °C 29.86 in /  1011.1 hPa WNW 6.0 mph /  9.7 km/h 12.0 mph /  19.3 km/h 78 % 0.00 in /  0 mm 14 W/m2
08:27 40.3 °F /  4.6 °C 34.0 °F /  1.1 °C 29.87 in /  1011.4 hPa WNW 7.0 mph /  11.3 km/h 12.0 mph /  19.3 km/h 78 % 0.00 in /  0 mm 14 W/m2
08:32 40.5 °F /  4.7 °C 34.1 °F /  1.2 °C 29.87 in /  1011.4 hPa NW 5.0 mph /  8 km/h 8.0 mph /  12.9 km/h 78 % 0.00 in /  0 mm 19 W/m2
08:38 40.5 °F /  4.7 °C 33.8 °F /  1 °C 29.87 in /  1011.4 hPa NW 8.0 mph /  12.9 km/h 14.0 mph /  22.5 km/h 77 % 0.00 in /  0 mm 32 W/m2
08:43 40.5 °F /  4.7 °C 34.1 °F /  1.2 °C 29.86 in /  1011.1 hPa NW 8.0 mph /  12.9 km/h 12.0 mph /  19.3 km/h 78 % 0.00 in /  0 mm 35 W/m2
08:48 40.6 °F /  4.8 °C 34.3 °F /  1.3 °C 29.87 in /  1011.4 hPa NW 6.0 mph /  9.7 km/h 13.0 mph /  20.9 km/h 78 % 0.00 in /  0 mm 35 W/m2
08:53 40.6 °F /  4.8 °C 34.0 °F /  1.1 °C 29.87 in /  1011.4 hPa NW 9.0 mph /  14.5 km/h 15.0 mph /  24.1 km/h 77 % 0.00 in /  0 mm 42 W/m2
08:58 40.6 °F /  4.8 °C 34.0 °F /  1.1 °C 29.87 in /  1011.4 hPa NW 8.0 mph /  12.9 km/h 15.0 mph /  24.1 km/h 77 % 0.00 in /  0 mm 32 W/m2
09:03 40.8 °F /  4.9 °C 34.2 °F /  1.2 °C 29.86 in /  1011.1 hPa NW 11.0 mph /  17.7 km/h 15.0 mph /  24.1 km/h 77 % 0.00 in /  0 mm 47 W/m2
09:08 40.8 °F /  4.9 °C 34.2 °F /  1.2 °C 29.86 in /  1011.1 hPa NW 9.0 mph /  14.5 km/h 19.0 mph /  30.6 km/h 77 % 0.00 in /  0 mm 53 W/m2
09:13 40.8 °F /  4.9 °C 34.2 °F /  1.2 °C 29.86 in /  1011.1 hPa NW 10.0 mph /  16.1 km/h 18.0 mph /  29 km/h 77 % 0.00 in /  0 mm 62 W/m2
09:18 41.0 °F /  5 °C 34.3 °F /  1.3 °C 29.86 in /  1011.1 hPa NW 6.0 mph /  9.7 km/h 11.0 mph /  17.7 km/h 77 % 0.00 in /  0 mm 58 W/m2
09:23 41.0 °F /  5 °C 34.3 °F /  1.3 °C 29.87 in /  1011.4 hPa NW 7.0 mph /  11.3 km/h 12.0 mph /  19.3 km/h 77 % 0.00 in /  0 mm 54 W/m2
09:28 41.0 °F /  5 °C 34.3 °F /  1.3 °C 29.87 in /  1011.4 hPa WNW 8.0 mph /  12.9 km/h 15.0 mph /  24.1 km/h 77 % 0.00 in /  0 mm 72 W/m2
09:33 41.0 °F /  5 °C 34.3 °F /  1.3 °C 29.87 in /  1011.4 hPa NW 7.0 mph /  11.3 km/h 13.0 mph /  20.9 km/h 77 % 0.00 in /  0 mm 79 W/m2
09:38 41.0 °F /  5 °C 34.3 °F /  1.3 °C 29.87 in /  1011.4 hPa WNW 8.0 mph /  12.9 km/h 12.0 mph /  19.3 km/h 77 % 0.00 in /  0 mm 84 W/m2
09:43 41.0 °F /  5 °C 34.3 °F /  1.3 °C 29.87 in /  1011.4 hPa WNW 11.0 mph /  17.7 km/h 18.0 mph /  29 km/h 77 % 0.00 in /  0 mm 83 W/m2
09:48 41.2 °F /  5.1 °C 34.5 °F /  1.4 °C 29.88 in /  1011.7 hPa NW 8.0 mph /  12.9 km/h 15.0 mph /  24.1 km/h 77 % 0.00 in /  0 mm 137 W/m2
09:53 41.4 °F /  5.2 °C 34.7 °F /  1.5 °C 29.88 in /  1011.7 hPa WNW 8.0 mph /  12.9 km/h 12.0 mph /  19.3 km/h 77 % 0.00 in /  0 mm 144 W/m2
09:58 41.5 °F /  5.3 °C 34.9 °F /  1.6 °C 29.88 in /  1011.7 hPa NW 9.0 mph /  14.5 km/h 15.0 mph /  24.1 km/h 77 % 0.00 in /  0 mm 186 W/m2
10:03 41.7 °F /  5.4 °C 34.7 °F /  1.5 °C 29.88 in /  1011.7 hPa NW 9.0 mph /  14.5 km/h 15.0 mph /  24.1 km/h 76 % 0.00 in /  0 mm 202 W/m2
10:08 42.1 °F /  5.6 °C 35.1 °F /  1.7 °C 29.88 in /  1011.7 hPa NW 6.0 mph /  9.7 km/h 12.0 mph /  19.3 km/h 76 % 0.00 in /  0 mm 213 W/m2
10:13 42.4 °F /  5.8 °C 35.4 °F /  1.9 °C 29.88 in /  1011.7 hPa NW 7.0 mph /  11.3 km/h 11.0 mph /  17.7 km/h 76 % 0.00 in /  0 mm 125 W/m2
10:18 42.8 °F /  6 °C 35.4 °F /  1.9 °C 29.88 in /  1011.7 hPa NW 8.0 mph /  12.9 km/h 18.0 mph /  29 km/h 75 % 0.00 in /  0 mm 294 W/m2
10:23 43.0 °F /  6.1 °C 35.3 °F /  1.8 °C 29.88 in /  1011.7 hPa NW 12.0 mph /  19.3 km/h 18.0 mph /  29 km/h 74 % 0.00 in /  0 mm 213 W/m2
10:28 42.8 °F /  6 °C 35.1 °F /  1.7 °C 29.88 in /  1011.7 hPa NW 12.0 mph /  19.3 km/h 21.0 mph /  33.8 km/h 74 % 0.00 in /  0 mm 128 W/m2
10:33 42.6 °F /  5.9 °C 34.9 °F /  1.6 °C 29.88 in /  1011.7 hPa NW 8.0 mph /  12.9 km/h 14.0 mph /  22.5 km/h 74 % 0.00 in /  0 mm 97 W/m2
10:38 42.4 °F /  5.8 °C 34.7 °F /  1.5 °C 29.88 in /  1011.7 hPa NW 9.0 mph /  14.5 km/h 14.0 mph /  22.5 km/h 74 % 0.00 in /  0 mm 95 W/m2
10:43 42.4 °F /  5.8 °C 34.7 °F /  1.5 °C 29.88 in /  1011.7 hPa NW 9.0 mph /  14.5 km/h 16.0 mph /  25.7 km/h 74 % 0.00 in /  0 mm 118 W/m2
10:48 42.4 °F /  5.8 °C 34.7 °F /  1.5 °C 29.89 in /  1012.1 hPa NW 10.0 mph /  16.1 km/h 20.0 mph /  32.2 km/h 74 % 0.00 in /  0 mm 91 W/m2
10:53 42.4 °F /  5.8 °C 34.7 °F /  1.5 °C 29.89 in /  1012.1 hPa NW 6.0 mph /  9.7 km/h 13.0 mph /  20.9 km/h 74 % 0.00 in /  0 mm 125 W/m2
10:58 42.4 °F /  5.8 °C 35.1 °F /  1.7 °C 29.89 in /  1012.1 hPa NW 9.0 mph /  14.5 km/h 15.0 mph /  24.1 km/h 75 % 0.00 in /  0 mm 202 W/m2
11:03 42.6 °F /  5.9 °C 34.9 °F /  1.6 °C 29.89 in /  1012.1 hPa NW 10.0 mph /  16.1 km/h 18.0 mph /  29 km/h 74 % 0.00 in /  0 mm 163 W/m2
11:08 42.6 °F /  5.9 °C 34.9 °F /  1.6 °C 29.89 in /  1012.1 hPa NNW 10.0 mph /  16.1 km/h 16.0 mph /  25.7 km/h 74 % 0.00 in /  0 mm 156 W/m2
11:13 42.8 °F /  6 °C 35.1 °F /  1.7 °C 29.88 in /  1011.7 hPa NW 8.0 mph /  12.9 km/h 13.0 mph /  20.9 km/h 74 % 0.00 in /  0 mm 281 W/m2
11:18 43.0 °F /  6.1 °C 35.3 °F /  1.8 °C 29.88 in /  1011.7 hPa NW 8.0 mph /  12.9 km/h 12.0 mph /  19.3 km/h 74 % 0.00 in /  0 mm 336 W/m2
11:24 43.2 °F /  6.2 °C 35.1 °F /  1.7 °C 29.89 in /  1012.1 hPa NW 9.0 mph /  14.5 km/h 18.0 mph /  29 km/h 73 % 0.00 in /  0 mm 148 W/m2
11:29 43.2 °F /  6.2 °C 35.1 °F /  1.7 °C 29.89 in /  1012.1 hPa NW 8.0 mph /  12.9 km/h 14.0 mph /  22.5 km/h 73 % 0.00 in /  0 mm 171 W/m2
11:34 43.3 °F /  6.3 °C 35.3 °F /  1.8 °C 29.89 in /  1012.1 hPa NW 8.0 mph /  12.9 km/h 12.0 mph /  19.3 km/h 73 % 0.00 in /  0 mm 178 W/m2
11:39 43.3 °F /  6.3 °C 35.3 °F /  1.8 °C 29.89 in /  1012.1 hPa NW 8.0 mph /  12.9 km/h 18.0 mph /  29 km/h 73 % 0.00 in /  0 mm 176 W/m2
11:44 43.5 °F /  6.4 °C 35.4 °F /  1.9 °C 29.89 in /  1012.1 hPa NW 9.0 mph /  14.5 km/h 14.0 mph /  22.5 km/h 73 % 0.00 in /  0 mm 410 W/m2
11:49 43.9 °F /  6.6 °C 35.8 °F /  2.1 °C 29.88 in /  1011.7 hPa NW 8.0 mph /  12.9 km/h 13.0 mph /  20.9 km/h 73 % 0.00 in /  0 mm 306 W/m2
11:54 44.1 °F /  6.7 °C 35.6 °F /  2 °C 29.89 in /  1012.1 hPa NW 8.0 mph /  12.9 km/h 14.0 mph /  22.5 km/h 72 % 0.00 in /  0 mm 127 W/m2
11:59 43.9 °F /  6.6 °C 35.4 °F /  1.9 °C 29.89 in /  1012.1 hPa NW 7.0 mph /  11.3 km/h 12.0 mph /  19.3 km/h 72 % 0.00 in /  0 mm 107 W/m2
12:04 43.7 °F /  6.5 °C 35.3 °F /  1.8 °C 29.89 in /  1012.1 hPa NW 6.0 mph /  9.7 km/h 12.0 mph /  19.3 km/h 72 % 0.00 in /  0 mm 116 W/m2
12:09 43.5 °F /  6.4 °C 35.1 °F /  1.7 °C 29.89 in /  1012.1 hPa NW 8.0 mph /  12.9 km/h 14.0 mph /  22.5 km/h 72 % 0.00 in /  0 mm 77 W/m2
12:14 43.3 °F /  6.3 °C 35.3 °F /  1.8 °C 29.88 in /  1011.7 hPa NW 7.0 mph /  11.3 km/h 12.0 mph /  19.3 km/h 73 % 0.00 in /  0 mm 91 W/m2
12:19 43.2 °F /  6.2 °C 35.4 °F /  1.9 °C 29.88 in /  1011.7 hPa NNW 5.0 mph /  8 km/h 9.0 mph /  14.5 km/h 74 % 0.00 in /  0 mm 113 W/m2
12:24 43.2 °F /  6.2 °C 35.4 °F /  1.9 °C 29.88 in /  1011.7 hPa NW 6.0 mph /  9.7 km/h 11.0 mph /  17.7 km/h 74 % 0.00 in /  0 mm 83 W/m2
12:29 43.2 °F /  6.2 °C 35.4 °F /  1.9 °C 29.88 in /  1011.7 hPa NW 6.0 mph /  9.7 km/h 10.0 mph /  16.1 km/h 74 % 0.00 in /  0 mm 79 W/m2
12:34 43.2 °F /  6.2 °C 35.4 °F /  1.9 °C 29.88 in /  1011.7 hPa NW 9.0 mph /  14.5 km/h 15.0 mph /  24.1 km/h 74 % 0.00 in /  0 mm 77 W/m2
12:39 43.2 °F /  6.2 °C 35.4 °F /  1.9 °C 29.88 in /  1011.7 hPa NW 7.0 mph /  11.3 km/h 12.0 mph /  19.3 km/h 74 % 0.00 in /  0 mm 97 W/m2
12:44 43.2 °F /  6.2 °C 35.8 °F /  2.1 °C 29.88 in /  1011.7 hPa NW 6.0 mph /  9.7 km/h 12.0 mph /  19.3 km/h 75 % 0.00 in /  0 mm 86 W/m2
12:49 43.2 °F /  6.2 °C 35.8 °F /  2.1 °C 29.88 in /  1011.7 hPa NW 3.0 mph /  4.8 km/h 8.0 mph /  12.9 km/h 75 % 0.00 in /  0 mm 114 W/m2
12:54 43.2 °F /  6.2 °C 35.8 °F /  2.1 °C 29.88 in /  1011.7 hPa NW 6.0 mph /  9.7 km/h 11.0 mph /  17.7 km/h 75 % 0.00 in /  0 mm 86 W/m2
12:59 43.3 °F /  6.3 °C 35.6 °F /  2 °C 29.88 in /  1011.7 hPa NNW 4.0 mph /  6.4 km/h 10.0 mph /  16.1 km/h 74 % 0.00 in /  0 mm 146 W/m2
13:04 43.5 °F /  6.4 °C 35.8 °F /  2.1 °C 29.88 in /  1011.7 hPa NNW 8.0 mph /  12.9 km/h 13.0 mph /  20.9 km/h 74 % 0.00 in /  0 mm 165 W/m2
13:09 43.9 °F /  6.6 °C 36.1 °F /  2.3 °C 29.88 in /  1011.7 hPa NNW 6.0 mph /  9.7 km/h 10.0 mph /  16.1 km/h 74 % 0.00 in /  0 mm 403 W/m2
13:14 44.1 °F /  6.7 °C 36.0 °F /  2.2 °C 29.88 in /  1011.7 hPa NNW 3.0 mph /  4.8 km/h 7.0 mph /  11.3 km/h 73 % 0.00 in /  0 mm 195 W/m2
13:19 44.2 °F /  6.8 °C 35.8 °F /  2.1 °C 29.88 in /  1011.7 hPa NNW 6.0 mph /  9.7 km/h 10.0 mph /  16.1 km/h 72 % 0.00 in /  0 mm 213 W/m2
13:24 44.4 °F /  6.9 °C 36.0 °F /  2.2 °C 29.88 in /  1011.7 hPa NNW 5.0 mph /  8 km/h 10.0 mph /  16.1 km/h 72 % 0.00 in /  0 mm 178 W/m2
13:29 44.4 °F /  6.9 °C 35.6 °F /  2 °C 29.87 in /  1011.4 hPa NNW 6.0 mph /  9.7 km/h 10.0 mph /  16.1 km/h 71 % 0.00 in /  0 mm 102 W/m2
13:34 44.2 °F /  6.8 °C 35.1 °F /  1.7 °C 29.88 in /  1011.7 hPa NNW 5.0 mph /  8 km/h 10.0 mph /  16.1 km/h 70 % 0.00 in /  0 mm 158 W/m2
13:39 44.4 °F /  6.9 °C 35.6 °F /  2 °C 29.88 in /  1011.7 hPa NW 7.0 mph /  11.3 km/h 13.0 mph /  20.9 km/h 71 % 0.00 in /  0 mm 339 W/m2
13:44 44.8 °F /  7.1 °C 35.6 °F /  2 °C 29.88 in /  1011.7 hPa NNW 8.0 mph /  12.9 km/h 12.0 mph /  19.3 km/h 70 % 0.00 in /  0 mm 490 W/m2
13:49 45.3 °F /  7.4 °C 35.7 °F /  2.1 °C 29.87 in /  1011.4 hPa NNW 7.0 mph /  11.3 km/h 11.0 mph /  17.7 km/h 69 % 0.00 in /  0 mm 420 W/m2
13:54 45.9 °F /  7.7 °C 35.5 °F /  1.9 °C 29.87 in /  1011.4 hPa North 7.0 mph /  11.3 km/h 12.0 mph /  19.3 km/h 67 % 0.00 in /  0 mm 320 W/m2
13:59 45.9 °F /  7.7 °C 35.1 °F /  1.7 °C 29.87 in /  1011.4 hPa NNW 5.0 mph /  8 km/h 10.0 mph /  16.1 km/h 66 % 0.00 in /  0 mm 79 W/m2
14:04 45.9 °F /  7.7 °C 35.1 °F /  1.7 °C 29.87 in /  1011.4 hPa NNW 5.0 mph /  8 km/h 10.0 mph /  16.1 km/h 66 % 0.00 in /  0 mm 309 W/m2
14:09 45.7 °F /  7.6 °C 34.6 °F /  1.4 °C 29.88 in /  1011.7 hPa NNW 6.0 mph /  9.7 km/h 11.0 mph /  17.7 km/h 65 % 0.00 in /  0 mm 167 W/m2
14:14 45.5 °F /  7.5 °C 34.8 °F /  1.6 °C 29.87 in /  1011.4 hPa NNW 6.0 mph /  9.7 km/h 10.0 mph /  16.1 km/h 66 % 0.00 in /  0 mm 156 W/m2
14:19 45.5 °F /  7.5 °C 35.2 °F /  1.8 °C 29.87 in /  1011.4 hPa NW 5.0 mph /  8 km/h 9.0 mph /  14.5 km/h 67 % 0.00 in /  0 mm 262 W/m2
14:20 45.7 °F /  7.6 °C 35.3 °F /  1.8 °C 29.87 in /  1011.4 hPa NW 4.0 mph /  6.4 km/h 9.0 mph /  14.5 km/h 67 % 0.00 in /  0 mm 262 W/m2
14:25 45.5 °F /  7.5 °C 34.8 °F /  1.6 °C 29.87 in /  1011.4 hPa NNW 8.0 mph /  12.9 km/h 13.0 mph /  20.9 km/h 66 % 0.00 in /  0 mm 279 W/m2
14:30 45.3 °F /  7.4 °C 34.6 °F /  1.4 °C 29.87 in /  1011.4 hPa NNW 7.0 mph /  11.3 km/h 11.0 mph /  17.7 km/h 66 % 0.00 in /  0 mm 285 W/m2
14:35 45.3 °F /  7.4 °C 34.6 °F /  1.4 °C 29.88 in /  1011.7 hPa NW 7.0 mph /  11.3 km/h 12.0 mph /  19.3 km/h 66 % 0.00 in /  0 mm 130 W/m2
14:40 45.3 °F /  7.4 °C 34.6 °F /  1.4 °C 29.87 in /  1011.4 hPa NNW 6.0 mph /  9.7 km/h 9.0 mph /  14.5 km/h 66 % 0.00 in /  0 mm 218 W/m2
14:45 45.1 °F /  7.3 °C 34.5 °F /  1.4 °C 29.87 in /  1011.4 hPa NW 6.0 mph /  9.7 km/h 10.0 mph /  16.1 km/h 66 % 0.00 in /  0 mm 95 W/m2
14:50 45.0 °F /  7.2 °C 34.3 °F /  1.3 °C 29.88 in /  1011.7 hPa NNW 6.0 mph /  9.7 km/h 11.0 mph /  17.7 km/h 66 % 0.00 in /  0 mm 120 W/m2
14:55 45.0 °F /  7.2 °C 34.7 °F /  1.5 °C 29.87 in /  1011.4 hPa NW 5.0 mph /  8 km/h 10.0 mph /  16.1 km/h 67 % 0.00 in /  0 mm 74 W/m2
15:00 44.8 °F /  7.1 °C 34.5 °F /  1.4 °C 29.88 in /  1011.7 hPa NW 6.0 mph /  9.7 km/h 11.0 mph /  17.7 km/h 67 % 0.00 in /  0 mm 54 W/m2
15:05 44.4 °F /  6.9 °C 34.1 °F /  1.2 °C 29.87 in /  1011.4 hPa NW 6.0 mph /  9.7 km/h 11.0 mph /  17.7 km/h 67 % 0.00 in /  0 mm 79 W/m2
15:10 44.2 °F /  6.8 °C 34.0 °F /  1.1 °C 29.88 in /  1011.7 hPa NW 3.0 mph /  4.8 km/h 7.0 mph /  11.3 km/h 67 % 0.00 in /  0 mm 42 W/m2
15:15 44.1 °F /  6.7 °C 34.2 °F /  1.2 °C 29.88 in /  1011.7 hPa NW 4.0 mph /  6.4 km/h 8.0 mph /  12.9 km/h 68 % 0.00 in /  0 mm 51 W/m2
15:20 44.1 °F /  6.7 °C 34.5 °F /  1.4 °C 29.88 in /  1011.7 hPa NW 3.0 mph /  4.8 km/h 6.0 mph /  9.7 km/h 69 % 0.00 in /  0 mm 72 W/m2
15:26 44.1 °F /  6.7 °C 34.5 °F /  1.4 °C 29.87 in /  1011.4 hPa NNW 3.0 mph /  4.8 km/h 8.0 mph /  12.9 km/h 69 % 0.00 in /  0 mm 123 W/m2
15:31 44.1 °F /  6.7 °C 34.5 °F /  1.4 °C 29.88 in /  1011.7 hPa NW 4.0 mph /  6.4 km/h 8.0 mph /  12.9 km/h 69 % 0.00 in /  0 mm 167 W/m2
15:36 44.1 °F /  6.7 °C 34.5 °F /  1.4 °C 29.87 in /  1011.4 hPa NW 6.0 mph /  9.7 km/h 10.0 mph /  16.1 km/h 69 % 0.00 in /  0 mm 54 W/m2
15:41 44.1 °F /  6.7 °C 34.2 °F /  1.2 °C 29.88 in /  1011.7 hPa NW 3.0 mph /  4.8 km/h 9.0 mph /  14.5 km/h 68 % 0.00 in /  0 mm 76 W/m2
15:46 44.1 °F /  6.7 °C 34.5 °F /  1.4 °C 29.87 in /  1011.4 hPa NW 5.0 mph /  8 km/h 8.0 mph /  12.9 km/h 69 % 0.00 in /  0 mm 44 W/m2
15:51 44.2 °F /  6.8 °C 34.7 °F /  1.5 °C 29.87 in /  1011.4 hPa NW 3.0 mph /  4.8 km/h 8.0 mph /  12.9 km/h 69 % 0.00 in /  0 mm 53 W/m2
15:56 44.2 °F /  6.8 °C 34.7 °F /  1.5 °C 29.87 in /  1011.4 hPa NW 4.0 mph /  6.4 km/h 7.0 mph /  11.3 km/h 69 % 0.00 in /  0 mm 39 W/m2
16:01 44.1 °F /  6.7 °C 34.5 °F /  1.4 °C 29.87 in /  1011.4 hPa NW 3.0 mph /  4.8 km/h 5.0 mph /  8 km/h 69 % 0.00 in /  0 mm 40 W/m2
16:06 43.9 °F /  6.6 °C 34.7 °F /  1.5 °C 29.87 in /  1011.4 hPa NNW 2.0 mph /  3.2 km/h 5.0 mph /  8 km/h 70 % 0.00 in /  0 mm 26 W/m2
16:11 43.5 °F /  6.4 °C 34.4 °F /  1.3 °C 29.87 in /  1011.4 hPa NW 3.0 mph /  4.8 km/h 6.0 mph /  9.7 km/h 70 % 0.00 in /  0 mm 25 W/m2
16:16 43.3 °F /  6.3 °C 34.6 °F /  1.4 °C 29.87 in /  1011.4 hPa NW 1.0 mph /  1.6 km/h 5.0 mph /  8 km/h 71 % 0.00 in /  0 mm 19 W/m2
16:21 43.2 °F /  6.2 °C 34.7 °F /  1.5 °C 29.87 in /  1011.4 hPa NW 1.0 mph /  1.6 km/h 3.0 mph /  4.8 km/h 72 % 0.00 in /  0 mm 19 W/m2
16:26 43.0 °F /  6.1 °C 34.6 °F /  1.4 °C 29.87 in /  1011.4 hPa NW 1.0 mph /  1.6 km/h 2.0 mph /  3.2 km/h 72 % 0.00 in /  0 mm 21 W/m2
16:31 43.0 °F /  6.1 °C 34.6 °F /  1.4 °C 29.87 in /  1011.4 hPa NW 1.0 mph /  1.6 km/h 4.0 mph /  6.4 km/h 72 % 0.00 in /  0 mm 14 W/m2
16:36 42.6 °F /  5.9 °C 34.6 °F /  1.4 °C 29.87 in /  1011.4 hPa Calm   1.0 mph /  1.6 km/h 73 % 0.00 in /  0 mm 11 W/m2
16:41 42.4 °F /  5.8 °C 34.4 °F /  1.3 °C 29.87 in /  1011.4 hPa NW 1.0 mph /  1.6 km/h 2.0 mph /  3.2 km/h 73 % 0.00 in /  0 mm 9 W/m2
16:46 42.1 °F /  5.6 °C 34.0 °F /  1.1 °C 29.87 in /  1011.4 hPa NW 3.0 mph /  4.8 km/h 7.0 mph /  11.3 km/h 73 % 0.00 in /  0 mm 7 W/m2
16:51 41.7 °F /  5.4 °C 33.7 °F /  0.9 °C 29.87 in /  1011.4 hPa NW 2.0 mph /  3.2 km/h 5.0 mph /  8 km/h 73 % 0.00 in /  0 mm 5 W/m2
16:56 41.4 °F /  5.2 °C 33.7 °F /  0.9 °C 29.87 in /  1011.4 hPa NW 1.0 mph /  1.6 km/h 3.0 mph /  4.8 km/h 74 % 0.00 in /  0 mm 0 W/m2
17:01 41.2 °F /  5.1 °C 33.5 °F /  0.8 °C 29.86 in /  1011.1 hPa NW 2.0 mph /  3.2 km/h 4.0 mph /  6.4 km/h 74 % 0.00 in /  0 mm 0 W/m2
17:06 40.6 °F /  4.8 °C 33.3 °F /  0.7 °C 29.87 in /  1011.4 hPa NW 2.0 mph /  3.2 km/h 5.0 mph /  8 km/h 75 % 0.00 in /  0 mm 0 W/m2
17:11 40.5 °F /  4.7 °C 33.5 °F /  0.8 °C 29.87 in /  1011.4 hPa NW 2.0 mph /  3.2 km/h 6.0 mph /  9.7 km/h 76 % 0.00 in /  0 mm 0 W/m2
17:16 40.3 °F /  4.6 °C 33.3 °F /  0.7 °C 29.87 in /  1011.4 hPa NW 1.0 mph /  1.6 km/h 2.0 mph /  3.2 km/h 76 % 0.00 in /  0 mm 0 W/m2
17:21 40.1 °F /  4.5 °C 33.1 °F /  0.6 °C 29.87 in /  1011.4 hPa WNW 1.0 mph /  1.6 km/h 5.0 mph /  8 km/h 76 % 0.00 in /  0 mm 0 W/m2
17:26 39.7 °F /  4.3 °C 33.1 °F /  0.6 °C 29.87 in /  1011.4 hPa NW 1.0 mph /  1.6 km/h 4.0 mph /  6.4 km/h 77 % 0.00 in /  0 mm 0 W/m2
17:31 39.6 °F /  4.2 °C 32.9 °F /  0.5 °C 29.87 in /  1011.4 hPa NW 1.0 mph /  1.6 km/h 2.0 mph /  3.2 km/h 77 % 0.00 in /  0 mm 0 W/m2
17:36 39.2 °F /  4 °C 32.9 °F /  0.5 °C 29.87 in /  1011.4 hPa Calm   1.0 mph /  1.6 km/h 78 % 0.00 in /  0 mm 0 W/m2
17:41 39.0 °F /  3.9 °C 32.7 °F /  0.4 °C 29.87 in /  1011.4 hPa Calm   2.0 mph /  3.2 km/h 78 % 0.00 in /  0 mm 0 W/m2
17:46 38.7 °F /  3.7 °C 32.4 °F /  0.2 °C 29.87 in /  1011.4 hPa Calm     78 % 0.00 in /  0 mm 0 W/m2
17:51 38.5 °F /  3.6 °C 32.2 °F /  0.1 °C 29.87 in /  1011.4 hPa Calm   1.0 mph /  1.6 km/h 78 % 0.00 in /  0 mm 0 W/m2
17:57 38.1 °F /  3.4 °C 32.2 °F /  0.1 °C 29.88 in /  1011.7 hPa Calm     79 % 0.00 in /  0 mm 0 W/m2
18:01 37.8 °F /  3.2 °C 31.8 °F /  -0.1 °C 29.87 in /  1011.4 hPa Calm     79 % 0.00 in /  0 mm 0 W/m2
18:07 37.4 °F /  3 °C 31.8 °F /  -0.1 °C 29.87 in /  1011.4 hPa Calm   1.0 mph /  1.6 km/h 80 % 0.00 in /  0 mm 0 W/m2
18:12 37.0 °F /  2.8 °C 31.8 °F /  -0.1 °C 29.87 in /  1011.4 hPa WNW 2.0 mph /  3.2 km/h 5.0 mph /  8 km/h 81 % 0.00 in /  0 mm 0 W/m2
18:17 36.9 °F /  2.7 °C 31.9 °F /  -0.1 °C 29.88 in /  1011.7 hPa NW 2.0 mph /  3.2 km/h 4.0 mph /  6.4 km/h 82 % 0.00 in /  0 mm 0 W/m2
18:22 36.9 °F /  2.7 °C 31.9 °F /  -0.1 °C 29.88 in /  1011.7 hPa Calm   1.0 mph /  1.6 km/h 82 % 0.00 in /  0 mm 0 W/m2
18:27 36.7 °F /  2.6 °C 32.0 °F /  0 °C 29.88 in /  1011.7 hPa Calm   1.0 mph /  1.6 km/h 83 % 0.00 in /  0 mm 0 W/m2
18:32 36.7 °F /  2.6 °C 32.0 °F /  0 °C 29.88 in /  1011.7 hPa Calm     83 % 0.00 in /  0 mm 0 W/m2
18:37 36.3 °F /  2.4 °C 31.7 °F /  -0.2 °C 29.87 in /  1011.4 hPa Calm     83 % 0.00 in /  0 mm 0 W/m2
18:42 36.1 °F /  2.3 °C 31.5 °F /  -0.3 °C 29.87 in /  1011.4 hPa Calm     83 % 0.00 in /  0 mm 0 W/m2
18:47 35.8 °F /  2.1 °C 31.1 °F /  -0.5 °C 29.87 in /  1011.4 hPa Calm   1.0 mph /  1.6 km/h 83 % 0.00 in /  0 mm 0 W/m2
18:52 35.6 °F /  2 °C 30.9 °F /  -0.6 °C 29.87 in /  1011.4 hPa Calm     83 % 0.00 in /  0 mm 0 W/m2
18:57 35.2 °F /  1.8 °C 30.9 °F /  -0.6 °C 29.87 in /  1011.4 hPa Calm   1.0 mph /  1.6 km/h 84 % 0.00 in /  0 mm 0 W/m2
19:02 35.1 °F /  1.7 °C 30.7 °F /  -0.7 °C 29.87 in /  1011.4 hPa Calm     84 % 0.00 in /  0 mm 0 W/m2
19:07 34.9 °F /  1.6 °C 30.8 °F /  -0.7 °C 29.87 in /  1011.4 hPa Calm   1.0 mph /  1.6 km/h 85 % 0.00 in /  0 mm 0 W/m2
19:12 34.7 °F /  1.5 °C 30.7 °F /  -0.7 °C 29.87 in /  1011.4 hPa Calm     85 % 0.00 in /  0 mm 0 W/m2
19:17 34.5 °F /  1.4 °C 30.8 °F /  -0.7 °C 29.87 in /  1011.4 hPa Calm     86 % 0.00 in /  0 mm 0 W/m2
19:22 34.3 °F /  1.3 °C 30.6 °F /  -0.8 °C 29.87 in /  1011.4 hPa Calm     86 % 0.00 in /  0 mm 0 W/m2
19:27 34.0 °F /  1.1 °C 30.2 °F /  -1 °C 29.86 in /  1011.1 hPa Calm     86 % 0.00 in /  0 mm 0 W/m2
19:32 33.6 °F /  0.9 °C 29.9 °F /  -1.2 °C 29.86 in /  1011.1 hPa Calm     86 % 0.00 in /  0 mm 0 W/m2
19:37 33.4 °F /  0.8 °C 29.7 °F /  -1.3 °C 29.86 in /  1011.1 hPa Calm     86 % 0.00 in /  0 mm 0 W/m2
19:42 33.3 °F /  0.7 °C 29.8 °F /  -1.2 °C 29.86 in /  1011.1 hPa Calm     87 % 0.00 in /  0 mm 0 W/m2
19:47 33.3 °F /  0.7 °C 30.1 °F /  -1.1 °C 29.86 in /  1011.1 hPa Calm     88 % 0.00 in /  0 mm 0 W/m2
19:52 33.1 °F /  0.6 °C 29.9 °F /  -1.2 °C 29.86 in /  1011.1 hPa Calm     88 % 0.00 in /  0 mm 0 W/m2
19:57 32.9 °F /  0.5 °C 29.7 °F /  -1.3 °C 29.86 in /  1011.1 hPa Calm     88 % 0.00 in /  0 mm 0 W/m2
20:02 32.7 °F /  0.4 °C 29.6 °F /  -1.3 °C 29.86 in /  1011.1 hPa Calm     88 % 0.00 in /  0 mm 0 W/m2
20:07 32.5 °F /  0.3 °C 29.4 °F /  -1.4 °C 29.86 in /  1011.1 hPa Calm     88 % 0.00 in /  0 mm 0 W/m2
20:12 32.4 °F /  0.2 °C 29.2 °F /  -1.6 °C 29.86 in /  1011.1 hPa Calm     88 % 0.00 in /  0 mm 0 W/m2
20:17 32.2 °F /  0.1 °C 29.0 °F /  -1.7 °C 29.86 in /  1011.1 hPa Calm     88 % 0.00 in /  0 mm 0 W/m2
20:22 32.2 °F /  0.1 °C 29.3 °F /  -1.5 °C 29.86 in /  1011.1 hPa Calm     89 % 0.00 in /  0 mm 0 W/m2
20:27 32.0 °F /  0 °C 29.1 °F /  -1.6 °C 29.86 in /  1011.1 hPa Calm     89 % 0.00 in /  0 mm 0 W/m2
20:32 31.8 °F /  -0.1 °C 28.9 °F /  -1.7 °C 29.86 in /  1011.1 hPa Calm   1.0 mph /  1.6 km/h 89 % 0.00 in /  0 mm 0 W/m2
20:37 31.8 °F /  -0.1 °C 29.2 °F /  -1.6 °C 29.86 in /  1011.1 hPa Calm     90 % 0.00 in /  0 mm 0 W/m2
20:42 31.8 °F /  -0.1 °C 28.9 °F /  -1.7 °C 29.86 in /  1011.1 hPa Calm     89 % 0.00 in /  0 mm 0 W/m2
20:47 31.6 °F /  -0.2 °C 28.8 °F /  -1.8 °C 29.86 in /  1011.1 hPa Calm     89 % 0.00 in /  0 mm 0 W/m2
20:52 31.5 °F /  -0.3 °C 28.9 °F /  -1.7 °C 29.86 in /  1011.1 hPa Calm     90 % 0.00 in /  0 mm 0 W/m2
20:57 31.5 °F /  -0.3 °C 28.9 °F /  -1.7 °C 29.85 in /  1010.7 hPa Calm   1.0 mph /  1.6 km/h 90 % 0.00 in /  0 mm 0 W/m2
21:02 31.5 °F /  -0.3 °C 28.9 °F /  -1.7 °C 29.85 in /  1010.7 hPa Calm     90 % 0.00 in /  0 mm 0 W/m2
21:08 31.5 °F /  -0.3 °C 29.1 °F /  -1.6 °C 29.85 in /  1010.7 hPa West 1.0 mph /  1.6 km/h 3.0 mph /  4.8 km/h 91 % 0.00 in /  0 mm 0 W/m2
21:13 31.6 °F /  -0.2 °C 29.3 °F /  -1.5 °C 29.85 in /  1010.7 hPa WNW 2.0 mph /  3.2 km/h 5.0 mph /  8 km/h 91 % 0.00 in /  0 mm 0 W/m2
21:18 31.8 °F /  -0.1 °C 29.5 °F /  -1.4 °C 29.85 in /  1010.7 hPa Calm   3.0 mph /  4.8 km/h 91 % 0.00 in /  0 mm 0 W/m2
21:23 32.2 °F /  0.1 °C 30.1 °F /  -1.1 °C 29.85 in /  1010.7 hPa Calm     92 % 0.00 in /  0 mm 0 W/m2
21:28 32.2 °F /  0.1 °C 29.8 °F /  -1.2 °C 29.84 in /  1010.4 hPa Calm     91 % 0.00 in /  0 mm 0 W/m2
21:33 31.8 °F /  -0.1 °C 29.5 °F /  -1.4 °C 29.84 in /  1010.4 hPa Calm     91 % 0.00 in /  0 mm 0 W/m2
21:38 31.8 °F /  -0.1 °C 29.5 °F /  -1.4 °C 29.84 in /  1010.4 hPa Calm     91 % 0.00 in /  0 mm 0 W/m2
21:43 31.6 °F /  -0.2 °C 29.3 °F /  -1.5 °C 29.84 in /  1010.4 hPa Calm     91 % 0.00 in /  0 mm 0 W/m2
21:48 31.5 °F /  -0.3 °C 29.1 °F /  -1.6 °C 29.84 in /  1010.4 hPa Calm     91 % 0.00 in /  0 mm 0 W/m2
21:53 31.3 °F /  -0.4 °C 28.7 °F /  -1.8 °C 29.84 in /  1010.4 hPa Calm     90 % 0.00 in /  0 mm 0 W/m2
21:58 31.1 °F /  -0.5 °C 28.8 °F /  -1.8 °C 29.84 in /  1010.4 hPa WNW 1.0 mph /  1.6 km/h 4.0 mph /  6.4 km/h 91 % 0.00 in /  0 mm 0 W/m2
22:03 31.3 °F /  -0.4 °C 29.0 °F /  -1.7 °C 29.84 in /  1010.4 hPa WNW 2.0 mph /  3.2 km/h 4.0 mph /  6.4 km/h 91 % 0.00 in /  0 mm 0 W/m2
22:08 31.5 °F /  -0.3 °C 29.4 °F /  -1.4 °C 29.84 in /  1010.4 hPa Calm   3.0 mph /  4.8 km/h 92 % 0.00 in /  0 mm 0 W/m2
22:13 31.5 °F /  -0.3 °C 29.4 °F /  -1.4 °C 29.84 in /  1010.4 hPa Calm     92 % 0.00 in /  0 mm 0 W/m2
22:18 31.5 °F /  -0.3 °C 29.4 °F /  -1.4 °C 29.84 in /  1010.4 hPa Calm   1.0 mph /  1.6 km/h 92 % 0.00 in /  0 mm 0 W/m2
22:23 31.6 °F /  -0.2 °C 29.6 °F /  -1.3 °C 29.84 in /  1010.4 hPa Calm   1.0 mph /  1.6 km/h 92 % 0.00 in /  0 mm 0 W/m2
22:28 31.6 °F /  -0.2 °C 29.6 °F /  -1.3 °C 29.83 in /  1010 hPa Calm   1.0 mph /  1.6 km/h 92 % 0.00 in /  0 mm 0 W/m2
22:33 31.8 °F /  -0.1 °C 29.8 °F /  -1.2 °C 29.83 in /  1010 hPa Calm   1.0 mph /  1.6 km/h 92 % 0.00 in /  0 mm 0 W/m2
22:38 31.6 °F /  -0.2 °C 29.6 °F /  -1.3 °C 29.83 in /  1010 hPa Calm   1.0 mph /  1.6 km/h 92 % 0.00 in /  0 mm 0 W/m2
22:43 31.6 °F /  -0.2 °C 29.6 °F /  -1.3 °C 29.83 in /  1010 hPa WNW 1.0 mph /  1.6 km/h 4.0 mph /  6.4 km/h 92 % 0.00 in /  0 mm 0 W/m2
22:48 31.8 °F /  -0.1 °C 30.0 °F /  -1.1 °C 29.83 in /  1010 hPa WNW 2.0 mph /  3.2 km/h 5.0 mph /  8 km/h 93 % 0.00 in /  0 mm 0 W/m2
22:53 31.8 °F /  -0.1 °C 30.0 °F /  -1.1 °C 29.83 in /  1010 hPa WNW 4.0 mph /  6.4 km/h 5.0 mph /  8 km/h 93 % 0.00 in /  0 mm 0 W/m2
22:58 32.2 °F /  0.1 °C 30.4 °F /  -0.9 °C 29.83 in /  1010 hPa WNW 4.0 mph /  6.4 km/h 6.0 mph /  9.7 km/h 93 % 0.00 in /  0 mm 0 W/m2
23:03 32.4 °F /  0.2 °C 30.6 °F /  -0.8 °C 29.83 in /  1010 hPa WNW 3.0 mph /  4.8 km/h 6.0 mph /  9.7 km/h 93 % 0.00 in /  0 mm 0 W/m2
23:08 32.5 °F /  0.3 °C 30.7 °F /  -0.7 °C 29.83 in /  1010 hPa WNW 4.0 mph /  6.4 km/h 6.0 mph /  9.7 km/h 93 % 0.00 in /  0 mm 0 W/m2
23:13 32.5 °F /  0.3 °C 30.7 °F /  -0.7 °C 29.83 in /  1010 hPa WNW 1.0 mph /  1.6 km/h 4.0 mph /  6.4 km/h 93 % 0.00 in /  0 mm 0 W/m2
23:18 32.7 °F /  0.4 °C 30.9 °F /  -0.6 °C 29.83 in /  1010 hPa Calm   3.0 mph /  4.8 km/h 93 % 0.00 in /  0 mm 0 W/m2
23:24 32.7 °F /  0.4 °C 30.9 °F /  -0.6 °C 29.82 in /  1009.7 hPa NW 4.0 mph /  6.4 km/h 5.0 mph /  8 km/h 93 % 0.00 in /  0 mm 0 W/m2
23:29 32.9 °F /  0.5 °C 31.1 °F /  -0.5 °C 29.82 in /  1009.7 hPa WNW 1.0 mph /  1.6 km/h 2.0 mph /  3.2 km/h 93 % 0.00 in /  0 mm 0 W/m2
23:34 32.9 °F /  0.5 °C 31.1 °F /  -0.5 °C 29.82 in /  1009.7 hPa Calm     93 % 0.00 in /  0 mm 0 W/m2
23:39 32.7 °F /  0.4 °C 30.7 °F /  -0.7 °C 29.82 in /  1009.7 hPa Calm     92 % 0.00 in /  0 mm 0 W/m2
23:44 32.5 °F /  0.3 °C 30.5 °F /  -0.8 °C 29.81 in /  1009.4 hPa Calm     92 % 0.00 in /  0 mm 0 W/m2
23:49 32.4 °F /  0.2 °C 30.3 °F /  -0.9 °C 29.81 in /  1009.4 hPa Calm   1.0 mph /  1.6 km/h 92 % 0.00 in /  0 mm 0 W/m2
23:54 32.4 °F /  0.2 °C 30.3 °F /  -0.9 °C 29.81 in /  1009.4 hPa Calm   1.0 mph /  1.6 km/h 92 % 0.00 in /  0 mm 0 W/m2
23:59 32.2 °F /  0.1 °C 30.1 °F /  -1.1 °C 29.81 in /  1009.4 hPa Calm     92 % 0.00 in /  0 mm 0 W/m2
Delerius-Weather
Compliments of Weather Underground - 2.25 mb

Data updates at regular intervals.